X  Close Metar Aviation Weather Data     KPNS Pensacola International Airport
Temperature
70°F Temperature
61°F Dewpoint
73% Humidity



Wind
5 MPH
8 KM/H
2 M/S
4 KTS



50°
NE
Current Conditions

Clear Clear
Pressure 1017.62 (hPa) - 30.05 (inHg)
Visibility 10 (mile) - 16.1 (km)
Airport
Airport-code KPNS

Location: Pensacola International Airport
Distance: 1 (mi)

Metar:
KPNS 040453Z AUTO 05004KT 10SM CLR 21/16 A3005 RMK AO2 SLP179 T02060156

Time: 10-03-2022 23:53 CDT